Gaylord, MI (49735)

6:30 PM EDT on May 23, 2017 (GMT -0400)
Castlewood Drive | | Change Station

Elev 1315 ft 44.99 °N, 84.66 °W | Updated 7 seconds ago

Rain
Rain
57.4 °F
Feels Like 57.4 °F
N
0.0
Wind Variable Wind from SE
Gusts 0.0 mph

Today
High -- | Low -- °F
--% Chance of Precip.
Yesterday
High -- | Low -- °F
Precip. -- in
Pressure 29.78 in
Visibility 4.0 miles
Clouds Mostly Cloudy 3100 ft
Overcast 6000 ft
Dew Point 54 °F
Humidity 87%
Rainfall 0.07 in
Snow Depth Not available.
6:01 AM 9:10 PM
Waning Crescent, 5% visible
METAR KGLR 232153Z AUTO VRB05KT 4SM RA BKN031 OVC060 15/11 A2976 RMK AO2 RAB12 SLP083 P0001 T01500106
Pressure 29.78 in
Visibility 4.0 miles
Clouds Mostly Cloudy 3100 ft
Overcast 6000 ft
Dew Point 54 °F
Humidity 87%
Rainfall 0.07 in
Snow Depth Not available.
6:01 AM 9:10 PM
Waning Crescent, 5% visible
METAR KGLR 232153Z AUTO VRB05KT 4SM RA BKN031 OVC060 15/11 A2976 RMK AO2 RAB12 SLP083 P0001 T01500106

Get Severe Weather Alerts

Thanks for signing up!

Be on the lookout for a verification email in your inbox.

You'll start receiving the daily forecast at 6 AM.

×

10-Day Weather Forecast

Almanac

Astronomy

May. 23, 2017 Rise Set
Actual Time
Civil Twilight
Nautical Twilight
Astronomical Twilight
Moon
Length of Visible Light
Length of Day
Tomorrow will be .
, % of the Moon is Illuminated

Today's Extremes

State Highs State Lows

Community

WunderPhotos

Category 6

Welcome to Category 6. This is the collective home for Weather Underground's featured writeups by Dr. Jeff Masters (right), Bob Henson (left), Chris Burt, and other regular contributors.

Nearby

Air Quality

  Air Quality AQ Index Pollutant
Not available.

Snow Depth

Station Depth Elevation

Earthquake Activity

City Distance Mag. Time & Date
Minimum magnitude displayed is 2.5.

Coastal Water Temperatures

Place Temperature

Stations

Nearby Weather Stations

Station Location Temp. Windchill Dew Point Humidity Wind Precip. Elev Updated Type
                   

Watches & Warnings

There are currently no watches in effect.